Spirit of New Zealand — ZMSV — position and weather

sailwx.info

Track history (hours):
 
Tides and Currents Weather Stations Pressure Air Temp Water Temp Dewpoint Dewpoint Depression Visibility Wind Speed Wind Dir Waves Ship Positions

Spirit of New Zealand

Last reported at 2020-Jan-28 17:58 UTC. Time now 2020-Jan-28 20:24 UTC.
Position S 40°51' E 173°02'.

Length 37 m; draft 4.1 m.

Type: Passenger vessel. MMSI: 512201000.

Date/timePositionNaut miles runAvg speedWind from/ knotsBaromVisibWave heightAir tempDewpointWater temp
2020-Jan-28 17:58S 40°51' E 173°02'0 0.0
2020-Jan-28 13:58S 40°51' E 173°02'0 0.1
2020-Jan-28 13:28S 40°51' E 173°02'0 0.0
2020-Jan-28 10:58S 40°51' E 173°02'4 0.6
2020-Jan-28 04:30S 40°52' E 173°07'2 1.9
2020-Jan-28 03:30S 40°53' E 173°04'1 0.3
2020-Jan-27 23:58S 40°53' E 173°03'2 0.8
2020-Jan-27 22:00S 40°52' E 173°04'4 0.9
2020-Jan-27 18:00S 40°49' E 173°01'0 0.0
2020-Jan-27 17:00S 40°49' E 173°01'0 0.0
2020-Jan-27 16:30S 40°49' E 173°01'0 0.0
2020-Jan-27 15:30S 40°49' E 173°01'0 0.0
2020-Jan-27 12:30S 40°49' E 173°01'0 0.0
2020-Jan-27 12:00S 40°49' E 173°01'0 0.0
2020-Jan-27 11:15S 40°49' E 173°01'0 0.0
2020-Jan-27 05:57S 40°49' E 173°01'1 0.7
2020-Jan-27 04:00S 40°49' E 173°03'1 0.3
2020-Jan-27 01:30S 40°48' E 173°02'1 0.5
2020-Jan-26 22:30S 40°47' E 173°00'0 0.0
2020-Jan-26 21:57S 40°47' E 173°00'0 0.0
2020-Jan-26 21:30S 40°47' E 173°00'0 0.0
2020-Jan-26 19:57S 40°47' E 173°00'0 0.0
2020-Jan-26 18:24S 40°47' E 173°00'0 0.0
2020-Jan-26 18:00S 40°47' E 173°00'0 0.0
2020-Jan-26 15:27S 40°47' E 173°00'0 0.0
2020-Jan-26 14:30S 40°47' E 173°00'0 0.0
2020-Jan-26 14:00S 40°47' E 173°00'0 0.0
2020-Jan-26 12:00S 40°47' E 173°00'0 0.0
2020-Jan-26 11:30S 40°47' E 173°00'0 0.0
2020-Jan-26 11:00S 40°47' E 173°00'0 0.0
2020-Jan-26 10:00S 40°47' E 173°00'0 0.0
2020-Jan-26 09:30S 40°47' E 173°00'11 2.8
2020-Jan-26 05:30S 40°39' E 172°50'9 2.1
2020-Jan-26 01:30S 40°37' E 173°01'3 6.5
2020-Jan-26 01:00S 40°37' E 173°06'2 0.8
2020-Jan-25 22:31S 40°39' E 173°07'19 4.8
2020-Jan-25 18:28S 40°58' E 173°04'0 0.0
2020-Jan-25 17:58S 40°58' E 173°04'0 0.0
2020-Jan-25 17:28S 40°58' E 173°04'0 0.0
2020-Jan-25 15:58S 40°58' E 173°04'0 0.0
2020-Jan-25 14:58S 40°58' E 173°04'0 0.0
2020-Jan-25 13:28S 40°58' E 173°04'0 0.0
2020-Jan-25 12:28S 40°58' E 173°04'0 0.0
2020-Jan-25 11:58S 40°58' E 173°04'0 0.0
2020-Jan-25 11:28S 40°58' E 173°04'0 0.0
2020-Jan-25 07:58S 40°58' E 173°03'0 0.0
2020-Jan-25 07:28S 40°58' E 173°03'2 0.5
2020-Jan-25 03:30S 40°59' E 173°06'4 1.6
2020-Jan-25 01:00S 41°02' E 173°08'4 8.3
2020-Jan-25 00:30S 41°06' E 173°11'11 6.9
2020-Jan-24 22:59S 41°16' E 173°16'0 0.0
2020-Jan-24 20:29S 41°16' E 173°16'0 0.0
2020-Jan-24 19:59S 41°16' E 173°16'0 0.0
2020-Jan-24 19:29S 41°16' E 173°16'0 0.0
2020-Jan-24 15:56S 41°16' E 173°16'0 0.0
2020-Jan-24 14:59S 41°16' E 173°16'0 0.0
2020-Jan-24 13:59S 41°16' E 173°16'0 0.0
2020-Jan-24 11:59S 41°16' E 173°16'0 0.0
2020-Jan-24 10:59S 41°16' E 173°16'0 0.0
2020-Jan-24 10:29S 41°16' E 173°16'0 0.0
2020-Jan-24 09:59S 41°16' E 173°16'0 0.0
2020-Jan-24 07:29S 41°16' E 173°16'0 0.0
2020-Jan-24 06:59S 41°16' E 173°16'0 0.0
2020-Jan-24 03:30S 41°16' E 173°16'3 3.0
2020-Jan-24 02:31S 41°13' E 173°15'7 3.6
2020-Jan-24 00:30S 41°06' E 173°14'2 2.1
2020-Jan-23 23:30S 41°05' E 173°12'5 3.2
2020-Jan-23 22:00S 41°01' E 173°09'11 1.9
2020-Jan-23 16:29S 40°51' E 173°02'0 0.0
2020-Jan-23 15:29S 40°51' E 173°02'0 0.0
2020-Jan-23 13:56S 40°51' E 173°02'0 0.0
2020-Jan-23 12:08S 40°51' E 173°02'0 0.0
2020-Jan-23 10:56S 40°51' E 173°02'0 0.0
2020-Jan-23 09:50S 40°51' E 173°02'2 0.5
2020-Jan-23 05:55S 40°49' E 173°01'0 0.0
2020-Jan-23 05:28S 40°49' E 173°01'4 0.4
2020-Jan-22 19:00S 40°53' E 173°03'0 0.0
2020-Jan-22 15:00S 40°53' E 173°03'0 0.0
2020-Jan-22 13:00S 40°53' E 173°03'0 0.0
2020-Jan-22 10:57S 40°53' E 173°03'0 0.0
2020-Jan-22 09:00S 40°53' E 173°03'0 0.0
2020-Jan-22 08:30S 40°53' E 173°03'0 0.0
2020-Jan-22 04:00S 40°53' E 173°03'0 0.1
2020-Jan-22 03:30S 40°53' E 173°03'0 0.0
2020-Jan-22 00:00S 40°53' E 173°03'0 0.0
2020-Jan-21 20:30S 40°53' E 173°03'0 0.0
2020-Jan-21 13:00S 40°53' E 173°03'0 0.0
2020-Jan-21 11:30S 40°53' E 173°03'0 0.0
2020-Jan-21 10:30S 40°53' E 173°03'11 3.8
2020-Jan-21 07:30S 40°55' E 173°18'2 3.8
2020-Jan-21 07:00S 40°55' E 173°21'17 5.6
2020-Jan-21 04:00S 40°54' E 173°43'3 5.6
2020-Jan-21 03:30S 40°54' E 173°47'0 0.5
2020-Jan-21 02:59S 40°54' E 173°47'0 0.0
2020-Jan-21 01:29S 40°54' E 173°47'0 0.0
2020-Jan-21 00:59S 40°54' E 173°47'8 1.9
2020-Jan-20 21:00S 40°53' E 173°57'6 2.5
2020-Jan-20 18:29S 40°59' E 173°59'0 0.0
2020-Jan-20 16:59S 40°59' E 173°59'0 0.0
2020-Jan-20 14:59S 40°59' E 173°59'0 0.0
2020-Jan-20 13:29S 40°59' E 173°59'0 0.0
2020-Jan-20 11:59S 40°59' E 173°59'0 0.0
2020-Jan-20 10:59S 40°59' E 173°59'0 0.0
2020-Jan-20 09:29S 40°59' E 173°59'0 0.1
2020-Jan-20 08:59S 40°59' E 173°59'0 0.0
2020-Jan-20 06:59S 40°59' E 173°59'0 0.0
2020-Jan-20 05:59S 40°59' E 173°59'0 0.0
2020-Jan-20 05:29S 40°59' E 173°59'0 0.0
2020-Jan-20 04:59S 40°59' E 173°59'0 0.0
2020-Jan-20 03:29S 40°59' E 173°59'0 0.0
2020-Jan-20 02:29S 40°59' E 173°59'0 0.0
2020-Jan-20 01:26S 40°59' E 173°59'0 0.0
2020-Jan-20 00:59S 40°59' E 173°59'0 0.0
2020-Jan-19 23:29S 40°59' E 173°59'0 0.0
2020-Jan-19 20:59S 40°59' E 173°59'0 0.0
2020-Jan-19 18:59S 40°59' E 173°59'0 0.1
2020-Jan-19 18:29S 40°59' E 173°59'0 0.0
2020-Jan-19 16:29S 40°59' E 173°59'0 0.0
2020-Jan-19 12:59S 40°59' E 173°59'0 0.0
2020-Jan-19 10:59S 40°59' E 173°59'0 0.1
2020-Jan-19 10:29S 40°59' E 173°59'0 0.0
2020-Jan-19 09:59S 40°59' E 173°59'0 0.0
2020-Jan-19 08:29S 40°59' E 173°59'0 0.0
2020-Jan-19 06:29S 40°59' E 173°59'11 5.8
2020-Jan-19 04:30S 41°06' E 173°47'1 0.9
2020-Jan-19 03:29S 41°06' E 173°46'7 2.8
2020-Jan-19 01:00S 41°05' E 173°55'5 9.9
2020-Jan-19 00:30S 41°09' E 173°51'2 0.9
2020-Jan-18 21:59S 41°10' E 173°48'0 0.1
2020-Jan-18 21:29S 41°10' E 173°48'0 0.0
2020-Jan-18 20:29S 41°10' E 173°48'4 3.8
2020-Jan-18 19:30S 41°08' E 173°52'  
Track history (hours):
 
Tides and Currents Weather Stations Pressure Air Temp Water Temp Dewpoint Dewpoint Depression Visibility Wind Speed Wind Dir Waves Ship Positions

Spirit of New Zealand

Last reported at 2020-Jan-28 17:58 UTC. Time now 2020-Jan-28 20:24 UTC.
Position S 40°51' E 173°02'.

Length 37 m; draft 4.1 m.

Type: Passenger vessel. MMSI: 512201000.

Date/timePositionNaut miles runAvg speedWind from/ knotsBaromVisibWave heightAir tempDewpointWater temp
2020-Jan-28 17:58S 40°51' E 173°02'0 0.0
2020-Jan-28 13:58S 40°51' E 173°02'0 0.1
2020-Jan-28 13:28S 40°51' E 173°02'0 0.0
2020-Jan-28 10:58S 40°51' E 173°02'4 0.6
2020-Jan-28 04:30S 40°52' E 173°07'2 1.9
2020-Jan-28 03:30S 40°53' E 173°04'1 0.3
2020-Jan-27 23:58S 40°53' E 173°03'2 0.8
2020-Jan-27 22:00S 40°52' E 173°04'4 0.9
2020-Jan-27 18:00S 40°49' E 173°01'0 0.0
2020-Jan-27 17:00S 40°49' E 173°01'0 0.0
2020-Jan-27 16:30S 40°49' E 173°01'0 0.0
2020-Jan-27 15:30S 40°49' E 173°01'0 0.0
2020-Jan-27 12:30S 40°49' E 173°01'0 0.0
2020-Jan-27 12:00S 40°49' E 173°01'0 0.0
2020-Jan-27 11:15S 40°49' E 173°01'0 0.0
2020-Jan-27 05:57S 40°49' E 173°01'1 0.7
2020-Jan-27 04:00S 40°49' E 173°03'1 0.3
2020-Jan-27 01:30S 40°48' E 173°02'1 0.5
2020-Jan-26 22:30S 40°47' E 173°00'0 0.0
2020-Jan-26 21:57S 40°47' E 173°00'0 0.0
2020-Jan-26 21:30S 40°47' E 173°00'0 0.0
2020-Jan-26 19:57S 40°47' E 173°00'0 0.0
2020-Jan-26 18:24S 40°47' E 173°00'0 0.0
2020-Jan-26 18:00S 40°47' E 173°00'0 0.0
2020-Jan-26 15:27S 40°47' E 173°00'0 0.0
2020-Jan-26 14:30S 40°47' E 173°00'0 0.0
2020-Jan-26 14:00S 40°47' E 173°00'0 0.0
2020-Jan-26 12:00S 40°47' E 173°00'0 0.0
2020-Jan-26 11:30S 40°47' E 173°00'0 0.0
2020-Jan-26 11:00S 40°47' E 173°00'0 0.0
2020-Jan-26 10:00S 40°47' E 173°00'0 0.0
2020-Jan-26 09:30S 40°47' E 173°00'11 2.8
2020-Jan-26 05:30S 40°39' E 172°50'9 2.1
2020-Jan-26 01:30S 40°37' E 173°01'3 6.5
2020-Jan-26 01:00S 40°37' E 173°06'2 0.8
2020-Jan-25 22:31S 40°39' E 173°07'19 4.8
2020-Jan-25 18:28S 40°58' E 173°04'0 0.0
2020-Jan-25 17:58S 40°58' E 173°04'0 0.0
2020-Jan-25 17:28S 40°58' E 173°04'0 0.0
2020-Jan-25 15:58S 40°58' E 173°04'0 0.0
2020-Jan-25 14:58S 40°58' E 173°04'0 0.0
2020-Jan-25 13:28S 40°58' E 173°04'0 0.0
2020-Jan-25 12:28S 40°58' E 173°04'0 0.0
2020-Jan-25 11:58S 40°58' E 173°04'0 0.0
2020-Jan-25 11:28S 40°58' E 173°04'0 0.0
2020-Jan-25 07:58S 40°58' E 173°03'0 0.0
2020-Jan-25 07:28S 40°58' E 173°03'2 0.5
2020-Jan-25 03:30S 40°59' E 173°06'4 1.6
2020-Jan-25 01:00S 41°02' E 173°08'4 8.3
2020-Jan-25 00:30S 41°06' E 173°11'11 6.9
2020-Jan-24 22:59S 41°16' E 173°16'0 0.0
2020-Jan-24 20:29S 41°16' E 173°16'0 0.0
2020-Jan-24 19:59S 41°16' E 173°16'0 0.0
2020-Jan-24 19:29S 41°16' E 173°16'0 0.0
2020-Jan-24 15:56S 41°16' E 173°16'0 0.0
2020-Jan-24 14:59S 41°16' E 173°16'0 0.0
2020-Jan-24 13:59S 41°16' E 173°16'0 0.0
2020-Jan-24 11:59S 41°16' E 173°16'0 0.0
2020-Jan-24 10:59S 41°16' E 173°16'0 0.0
2020-Jan-24 10:29S 41°16' E 173°16'0 0.0
2020-Jan-24 09:59S 41°16' E 173°16'0 0.0
2020-Jan-24 07:29S 41°16' E 173°16'0 0.0
2020-Jan-24 06:59S 41°16' E 173°16'0 0.0
2020-Jan-24 03:30S 41°16' E 173°16'3 3.0
2020-Jan-24 02:31S 41°13' E 173°15'7 3.6
2020-Jan-24 00:30S 41°06' E 173°14'2 2.1
2020-Jan-23 23:30S 41°05' E 173°12'5 3.2
2020-Jan-23 22:00S 41°01' E 173°09'11 1.9
2020-Jan-23 16:29S 40°51' E 173°02'0 0.0
2020-Jan-23 15:29S 40°51' E 173°02'0 0.0
2020-Jan-23 13:56S 40°51' E 173°02'0 0.0
2020-Jan-23 12:08S 40°51' E 173°02'0 0.0
2020-Jan-23 10:56S 40°51' E 173°02'0 0.0
2020-Jan-23 09:50S 40°51' E 173°02'2 0.5
2020-Jan-23 05:55S 40°49' E 173°01'0 0.0
2020-Jan-23 05:28S 40°49' E 173°01'4 0.4
2020-Jan-22 19:00S 40°53' E 173°03'0 0.0
2020-Jan-22 15:00S 40°53' E 173°03'0 0.0
2020-Jan-22 13:00S 40°53' E 173°03'0 0.0
2020-Jan-22 10:57S 40°53' E 173°03'0 0.0
2020-Jan-22 09:00S 40°53' E 173°03'0 0.0
2020-Jan-22 08:30S 40°53' E 173°03'0 0.0
2020-Jan-22 04:00S 40°53' E 173°03'0 0.1
2020-Jan-22 03:30S 40°53' E 173°03'0 0.0
2020-Jan-22 00:00S 40°53' E 173°03'0 0.0
2020-Jan-21 20:30S 40°53' E 173°03'0 0.0
2020-Jan-21 13:00S 40°53' E 173°03'0 0.0
2020-Jan-21 11:30S 40°53' E 173°03'0 0.0
2020-Jan-21 10:30S 40°53' E 173°03'11 3.8
2020-Jan-21 07:30S 40°55' E 173°18'2 3.8
2020-Jan-21 07:00S 40°55' E 173°21'17 5.6
2020-Jan-21 04:00S 40°54' E 173°43'3 5.6
2020-Jan-21 03:30S 40°54' E 173°47'0 0.5
2020-Jan-21 02:59S 40°54' E 173°47'0 0.0
2020-Jan-21 01:29S 40°54' E 173°47'0 0.0
2020-Jan-21 00:59S 40°54' E 173°47'8 1.9
2020-Jan-20 21:00S 40°53' E 173°57'6 2.5
2020-Jan-20 18:29S 40°59' E 173°59'0 0.0
2020-Jan-20 16:59S 40°59' E 173°59'0 0.0
2020-Jan-20 14:59S 40°59' E 173°59'0 0.0
2020-Jan-20 13:29S 40°59' E 173°59'0 0.0
2020-Jan-20 11:59S 40°59' E 173°59'0 0.0
2020-Jan-20 10:59S 40°59' E 173°59'0 0.0
2020-Jan-20 09:29S 40°59' E 173°59'0 0.1
2020-Jan-20 08:59S 40°59' E 173°59'0 0.0
2020-Jan-20 06:59S 40°59' E 173°59'0 0.0
2020-Jan-20 05:59S 40°59' E 173°59'0 0.0
2020-Jan-20 05:29S 40°59' E 173°59'0 0.0
2020-Jan-20 04:59S 40°59' E 173°59'0 0.0
2020-Jan-20 03:29S 40°59' E 173°59'0 0.0
2020-Jan-20 02:29S 40°59' E 173°59'0 0.0
2020-Jan-20 01:26S 40°59' E 173°59'0 0.0
2020-Jan-20 00:59S 40°59' E 173°59'0 0.0
2020-Jan-19 23:29S 40°59' E 173°59'0 0.0
2020-Jan-19 20:59S 40°59' E 173°59'0 0.0
2020-Jan-19 18:59S 40°59' E 173°59'0 0.1
2020-Jan-19 18:29S 40°59' E 173°59'0 0.0
2020-Jan-19 16:29S 40°59' E 173°59'0 0.0
2020-Jan-19 12:59S 40°59' E 173°59'0 0.0
2020-Jan-19 10:59S 40°59' E 173°59'0 0.1
2020-Jan-19 10:29S 40°59' E 173°59'0 0.0
2020-Jan-19 09:59S 40°59' E 173°59'0 0.0
2020-Jan-19 08:29S 40°59' E 173°59'0 0.0
2020-Jan-19 06:29S 40°59' E 173°59'11 5.8
2020-Jan-19 04:30S 41°06' E 173°47'1 0.9
2020-Jan-19 03:29S 41°06' E 173°46'7 2.8
2020-Jan-19 01:00S 41°05' E 173°55'5 9.9
2020-Jan-19 00:30S 41°09' E 173°51'2 0.9
2020-Jan-18 21:59S 41°10' E 173°48'0 0.1
2020-Jan-18 21:29S 41°10' E 173°48'0 0.0
2020-Jan-18 20:29S 41°10' E 173°48'4 3.8
2020-Jan-18 19:30S 41°08' E 173°52'  

Dump ship's entire track history